Time;durP1;ratioP1;P1;durP2;ratioP2;P2;SDS_P1;SDS_P2;PMS_P1;PMS_P2;Temp;Humidity;BMP_temperature;BMP_pressure;BME280_temperature;BME280_humidity;BME280_pressure;Samples;Min_cycle;Max_cycle;Signal;HPM_P1;HPM_P2
2021/01/27 00:01:00;;;;;;;11.43;9.50;;;5.30;90.10;;;;;;5058433;28;20707;-60
2021/01/27 00:03:27;;;;;;;9.43;8.40;;;5.30;90.00;;;;;;5070567;28;20625;-60
2021/01/27 00:05:53;;;;;;;8.83;8.00;;;5.30;90.10;;;;;;5070491;28;20633;-60
2021/01/27 00:08:21;;;;;;;12.57;7.73;;;5.30;90.00;;;;;;5050619;28;20720;-61
2021/01/27 00:10:47;;;;;;;7.80;7.00;;;5.30;90.00;;;;;;5053256;28;20724;-61
2021/01/27 00:13:17;;;;;;;9.20;7.83;;;5.30;89.80;;;;;;5058587;28;20630;-62
2021/01/27 00:15:44;;;;;;;10.73;7.90;;;5.30;89.80;;;;;;5050709;28;21022;-60
2021/01/27 00:18:13;;;;;;;13.80;8.50;;;5.40;90.00;;;;;;5058004;28;20626;-60
2021/01/27 00:20:40;;;;;;;13.30;9.13;;;5.30;89.90;;;;;;5054216;28;20724;-60
2021/01/27 00:23:07;;;;;;;10.50;8.07;;;5.40;90.10;;;;;;5054184;28;20622;-60
2021/01/27 00:25:37;;;;;;;11.63;9.13;;;5.40;90.10;;;;;;5054313;28;21243;-59
2021/01/27 00:28:04;;;;;;;9.33;8.27;;;5.40;90.10;;;;;;5054003;28;21204;-63
2021/01/27 00:30:32;;;;;;;10.10;7.67;;;5.30;90.10;;;;;;5057330;28;20653;-61
2021/01/27 00:32:59;;;;;;;9.93;8.50;;;5.30;90.10;;;;;;5073303;28;20629;-62
2021/01/27 00:35:28;;;;;;;8.53;7.73;;;5.40;90.30;;;;;;5073002;28;20621;-60
2021/01/27 00:37:55;;;;;;;8.83;7.13;;;5.30;90.50;;;;;;5073523;28;21026;-62
2021/01/27 00:40:22;;;;;;;9.47;8.17;;;5.30;90.60;;;;;;5072576;28;20660;-60
2021/01/27 00:42:48;;;;;;;11.37;10.27;;;5.20;90.80;;;;;;5073799;28;20660;-60
2021/01/27 00:45:15;;;;;;;9.40;8.50;;;5.10;90.80;;;;;;5074285;28;20656;-60
2021/01/27 00:47:42;;;;;;;8.70;7.00;;;5.10;90.90;;;;;;5074066;28;20775;-61
2021/01/27 00:50:10;;;;;;;9.73;7.80;;;5.00;91.00;;;;;;5073748;28;20664;-61
2021/01/27 00:52:37;;;;;;;8.20;6.70;;;5.00;91.40;;;;;;5073926;28;21019;-62
2021/01/27 00:55:10;;;;;;;11.00;8.63;;;5.00;91.40;;;;;;5073688;28;20651;-61
2021/01/27 00:57:37;;;;;;;8.27;7.33;;;5.10;91.20;;;;;;5073692;28;20688;-60
2021/01/27 01:00:08;;;;;;;10.30;6.77;;;5.10;91.10;;;;;;5073319;28;20661;-61
2021/01/27 01:02:39;;;;;;;9.30;7.77;;;5.00;91.00;;;;;;5074057;28;20621;-60
2021/01/27 01:05:09;;;;;;;8.57;7.50;;;5.00;91.10;;;;;;5072984;28;20689;-60
2021/01/27 01:07:36;;;;;;;9.60;7.23;;;5.00;91.10;;;;;;5073086;28;20660;-61
2021/01/27 01:10:05;;;;;;;11.33;7.10;;;5.00;91.00;;;;;;5072810;28;20707;-62
2021/01/27 01:12:32;;;;;;;11.80;8.50;;;5.00;91.20;;;;;;5072469;28;20678;-61
2021/01/27 01:14:59;;;;;;;8.40;7.60;;;5.00;91.00;;;;;;5073210;28;20944;-61
2021/01/27 01:17:26;;;;;;;7.60;6.57;;;4.90;90.80;;;;;;5072712;28;21200;-60
2021/01/27 01:19:52;;;;;;;12.53;6.10;;;4.90;90.90;;;;;;5072949;28;20664;-61
2021/01/27 01:22:19;;;;;;;7.90;7.13;;;4.90;90.90;;;;;;5073387;28;20678;-61
2021/01/27 01:24:47;;;;;;;7.50;6.70;;;4.90;91.00;;;;;;5072968;28;20621;-60
2021/01/27 01:27:14;;;;;;;7.80;5.90;;;4.90;91.10;;;;;;5063770;28;20654;-59
2021/01/27 01:29:40;;;;;;;12.77;7.27;;;4.80;91.10;;;;;;5057627;28;20985;-60
2021/01/27 01:32:07;;;;;;;8.13;7.20;;;4.80;91.00;;;;;;5052945;28;21023;-60
2021/01/27 01:34:34;;;;;;;5.87;5.13;;;4.90;91.20;;;;;;5052333;28;20680;-60
2021/01/27 01:37:00;;;;;;;8.77;6.37;;;4.90;90.60;;;;;;5052641;28;20618;-60
2021/01/27 01:39:27;;;;;;;7.10;6.00;;;4.90;90.50;;;;;;5057227;28;20655;-61
2021/01/27 01:41:55;;;;;;;8.47;5.30;;;5.00;90.50;;;;;;5072627;28;21373;-61
2021/01/27 01:44:21;;;;;;;7.20;6.57;;;5.00;90.40;;;;;;5072083;28;20969;-61
2021/01/27 01:46:48;;;;;;;6.90;6.20;;;5.00;90.40;;;;;;5072764;28;20651;-59
2021/01/27 01:49:15;;;;;;;7.85;6.07;;;5.00;90.40;;;;;;5072429;28;20625;-60
2021/01/27 01:51:46;;;;;;;7.00;6.30;;;5.00;90.10;;;;;;5056386;28;20223;-61
2021/01/27 01:54:16;;;;;;;13.90;5.97;;;5.00;90.10;;;;;;5051906;28;20688;-61
2021/01/27 01:56:46;;;;;;;8.30;5.13;;;5.00;89.80;;;;;;5057722;28;20625;-61
2021/01/27 01:59:14;;;;;;;6.63;5.57;;;5.00;89.50;;;;;;5072053;28;21184;-62
2021/01/27 02:01:42;;;;;;;11.93;6.90;;;5.10;89.40;;;;;;5072009;28;20657;-60
2021/01/27 02:04:08;;;;;;;9.63;5.90;;;5.00;89.20;;;;;;5072382;28;20690;-60
2021/01/27 02:06:35;;;;;;;7.00;4.90;;;5.00;89.10;;;;;;5071874;28;20625;-60
2021/01/27 02:09:03;;;;;;;8.73;5.53;;;5.10;89.00;;;;;;5072354;28;20702;-60
2021/01/27 02:11:38;;;;;;;6.40;5.50;;;5.10;88.80;;;;;;5058372;28;21056;-61
2021/01/27 02:14:14;;;;;;;7.87;6.70;;;5.00;88.70;;;;;;5066513;28;20625;-61
2021/01/27 02:16:43;;;;;;;4.37;3.93;;;5.00;88.80;;;;;;5071493;28;21188;-60
2021/01/27 02:19:46;;;;;;;7.77;5.73;;;5.00;88.60;;;;;;5032457;28;21178;-61
2021/01/27 02:22:39;;;;;;;6.43;5.83;;;5.00;88.90;;;;;;5032417;28;20630;-61
2021/01/27 02:25:35;;;;;;;10.63;5.97;;;5.00;88.90;;;;;;5053849;28;20674;-60
2021/01/27 02:28:04;;;;;;;10.20;5.40;;;5.00;89.10;;;;;;5072120;28;21237;-61
2021/01/27 02:30:48;;;;;;;8.30;5.87;;;5.00;88.80;;;;;;5072227;28;20649;-61
2021/01/27 02:33:47;;;;;;;6.17;5.57;;;5.00;89.40;;;;;;5072077;28;20722;-61
2021/01/27 02:36:15;;;;;;;5.70;5.10;;;5.00;88.70;;;;;;5062777;28;20692;-61
2021/01/27 02:38:45;;;;;;;7.70;5.40;;;5.10;88.50;;;;;;5051918;28;20633;-60
2021/01/27 02:41:14;;;;;;;6.57;5.90;;;5.10;88.30;;;;;;5071246;28;20664;-61
2021/01/27 02:43:42;;;;;;;5.10;4.60;;;5.20;88.00;;;;;;5071000;28;21060;-60
2021/01/27 02:46:11;;;;;;;10.63;5.77;;;5.20;87.70;;;;;;5071739;28;20629;-60
2021/01/27 02:48:39;;;;;;;8.63;5.20;;;5.20;87.40;;;;;;5071450;28;20683;-60
2021/01/27 02:51:07;;;;;;;6.20;5.60;;;5.20;87.30;;;;;;5071440;28;20665;-61
2021/01/27 02:53:37;;;;;;;9.07;5.80;;;5.20;87.20;;;;;;5071233;28;20674;-61
2021/01/27 02:56:11;;;;;;;5.43;4.83;;;5.20;87.20;;;;;;5071323;28;21249;-61
2021/01/27 02:58:39;;;;;;;6.73;5.37;;;5.10;87.40;;;;;;5071045;28;20629;-61
2021/01/27 03:01:07;;;;;;;6.93;6.03;;;5.10;87.40;;;;;;5071363;28;20653;-61
2021/01/27 03:03:36;;;;;;;6.17;5.23;;;5.20;87.50;;;;;;5071549;28;20633;-60
2021/01/27 03:06:05;;;;;;;7.10;5.70;;;5.20;87.40;;;;;;5066003;28;20627;-60
2021/01/27 03:08:33;;;;;;;6.77;5.40;;;5.30;87.40;;;;;;5059512;28;20661;-61
2021/01/27 03:11:05;;;;;;;6.67;6.07;;;5.30;87.40;;;;;;5070642;28;21200;-59
2021/01/27 03:13:33;;;;;;;6.37;5.67;;;5.30;87.10;;;;;;5061456;28;20687;-59
2021/01/27 03:16:01;;;;;;;6.23;5.37;;;5.40;87.10;;;;;;5051707;28;20630;-59
2021/01/27 03:18:29;;;;;;;6.00;5.40;;;5.40;86.80;;;;;;5053460;28;20623;-59
2021/01/27 03:21:01;;;;;;;7.50;5.10;;;5.40;86.40;;;;;;5070841;28;20651;-60
2021/01/27 03:23:30;;;;;;;8.17;5.53;;;5.40;86.20;;;;;;5071070;28;20690;-61
2021/01/27 03:26:01;;;;;;;8.60;6.13;;;5.40;85.90;;;;;;5085593;28;21176;-59
2021/01/27 03:28:33;;;;;;;8.47;5.33;;;5.40;85.90;;;;;;5072935;28;20662;-59
2021/01/27 03:30:59;;;;;;;6.20;5.10;;;5.40;86.10;;;;;;5061025;28;20654;-59
2021/01/27 03:33:29;;;;;;;6.23;5.30;;;5.40;86.10;;;;;;5052475;28;20674;-59
2021/01/27 03:35:57;;;;;;;6.63;5.80;;;5.30;85.70;;;;;;5050837;28;20622;-59
2021/01/27 03:38:29;;;;;;;9.67;5.93;;;5.30;85.50;;;;;;5071195;28;20629;-60
2021/01/27 03:40:57;;;;;;;5.43;4.93;;;5.30;85.60;;;;;;5071100;28;20692;-60
2021/01/27 03:43:28;;;;;;;7.00;4.83;;;5.30;85.70;;;;;;5069531;28;20633;-60
2021/01/27 03:46:01;;;;;;;5.40;4.90;;;5.30;85.40;;;;;;5070645;28;20674;-60
2021/01/27 03:48:29;;;;;;;7.80;5.30;;;5.20;85.50;;;;;;5059088;28;20703;-60
2021/01/27 03:50:57;;;;;;;4.93;4.33;;;5.20;85.50;;;;;;5051018;28;20708;-61
2021/01/27 03:53:25;;;;;;;6.27;4.40;;;5.20;85.50;;;;;;5052676;28;20630;-61
2021/01/27 03:55:53;;;;;;;8.03;5.40;;;5.30;85.40;;;;;;5074989;28;20649;-60
2021/01/27 03:58:22;;;;;;;6.53;4.73;;;5.30;85.30;;;;;;5075051;28;20616;-60
2021/01/27 04:00:50;;;;;;;6.63;4.70;;;5.30;85.20;;;;;;5077528;28;20657;-59
2021/01/27 04:03:19;;;;;;;5.43;4.93;;;5.30;85.00;;;;;;5089256;28;20638;-59
2021/01/27 04:05:46;;;;;;;5.33;4.83;;;5.30;84.90;;;;;;5077353;28;20621;-59
2021/01/27 04:08:13;;;;;;;8.50;4.30;;;5.30;84.20;;;;;;5077995;28;20653;-59
2021/01/27 04:10:40;;;;;;;5.53;4.90;;;5.40;84.20;;;;;;5075866;28;21224;-60
2021/01/27 04:13:06;;;;;;;5.67;4.10;;;5.40;84.20;;;;;;5075257;28;20678;-59
2021/01/27 04:15:33;;;;;;;8.00;4.90;;;5.40;84.00;;;;;;5074428;28;20625;-59
2021/01/27 04:18:00;;;;;;;8.40;5.60;;;5.40;83.90;;;;;;5074662;28;20649;-61
2021/01/27 04:20:28;;;;;;;9.43;4.27;;;5.40;83.80;;;;;;5073997;28;20664;-60
2021/01/27 04:22:55;;;;;;;7.73;7.03;;;5.50;84.00;;;;;;5074175;28;20633;-59
2021/01/27 04:25:22;;;;;;;5.47;4.50;;;5.50;83.40;;;;;;5073166;28;20618;-61
2021/01/27 04:27:51;;;;;;;8.57;5.50;;;5.50;83.50;;;;;;5073881;28;20693;-60
2021/01/27 04:30:20;;;;;;;5.77;5.03;;;5.50;83.60;;;;;;5071682;28;20786;-60
2021/01/27 04:32:49;;;;;;;5.03;3.67;;;5.50;83.20;;;;;;5075245;28;20690;-59
2021/01/27 04:35:16;;;;;;;5.70;4.90;;;5.50;82.80;;;;;;5074311;28;20628;-59
2021/01/27 04:37:44;;;;;;;6.10;4.70;;;5.50;82.90;;;;;;5074239;28;20674;-60
2021/01/27 04:40:12;;;;;;;7.10;4.80;;;5.40;82.60;;;;;;5073085;28;20684;-60
2021/01/27 04:42:38;;;;;;;5.13;4.63;;;5.40;82.70;;;;;;5073657;28;20633;-59
2021/01/27 04:45:06;;;;;;;5.43;4.20;;;5.40;82.60;;;;;;5073619;28;21226;-60
2021/01/27 04:47:35;;;;;;;4.80;4.10;;;5.40;82.50;;;;;;5073599;28;20682;-60
2021/01/27 04:50:04;;;;;;;6.57;5.37;;;5.40;82.50;;;;;;5073990;28;20656;-61
2021/01/27 04:52:52;;;;;;;4.60;3.77;;;5.40;82.50;;;;;;5073567;28;20629;-60
2021/01/27 04:55:33;;;;;;;5.03;4.53;;;5.40;83.00;;;;;;5070708;28;20625;-60
2021/01/27 04:58:08;;;;;;;5.63;4.83;;;5.40;82.40;;;;;;5073961;28;20621;-60
2021/01/27 05:00:44;;;;;;;5.90;4.23;;;5.40;83.00;;;;;;5074078;28;21020;-60
2021/01/27 05:03:51;;;;;;;7.20;5.90;;;5.40;82.70;;;;;;5073517;28;20628;-60
2021/01/27 05:06:20;;;;;;;7.50;4.07;;;5.30;82.00;;;;;;5073380;28;20632;-60
2021/01/27 05:08:52;;;;;;;5.40;4.53;;;5.30;82.50;;;;;;5073326;28;20657;-61
2021/01/27 05:11:20;;;;;;;4.50;4.10;;;5.40;82.60;;;;;;5073186;28;20644;-60
2021/01/27 05:13:49;;;;;;;5.37;4.57;;;5.30;82.50;;;;;;5071907;28;20714;-60
2021/01/27 05:16:17;;;;;;;4.77;4.37;;;5.30;83.30;;;;;;5073027;28;20629;-60
2021/01/27 05:18:44;;;;;;;5.97;4.53;;;5.30;82.90;;;;;;5072843;28;20637;-60
2021/01/27 05:21:18;;;;;;;7.53;5.20;;;5.30;82.70;;;;;;5073201;28;20661;-59
2021/01/27 05:23:44;;;;;;;5.17;4.67;;;5.30;82.80;;;;;;5072932;28;20684;-60
2021/01/27 05:26:12;;;;;;;7.17;5.63;;;5.30;83.30;;;;;;5072830;28;20637;-59
2021/01/27 05:28:41;;;;;;;5.37;4.63;;;5.30;83.10;;;;;;5072376;28;20703;-60
2021/01/27 05:31:08;;;;;;;6.53;4.50;;;5.40;82.90;;;;;;5047334;28;20653;-62
2021/01/27 05:33:45;;;;;;;6.50;4.73;;;5.40;82.60;;;;;;5072563;28;20661;-60
2021/01/27 05:36:15;;;;;;;5.50;4.80;;;5.40;82.20;;;;;;5060589;28;20685;-60
2021/01/27 05:38:41;;;;;;;5.57;5.00;;;5.40;82.20;;;;;;5052776;28;21069;-62
2021/01/27 05:41:15;;;;;;;7.67;5.43;;;5.50;82.60;;;;;;5052634;28;20680;-61
2021/01/27 05:43:42;;;;;;;5.40;4.90;;;5.50;83.10;;;;;;5060645;28;20773;-61
2021/01/27 05:46:11;;;;;;;5.30;4.80;;;5.40;83.30;;;;;;5072302;28;21041;-60
2021/01/27 05:48:46;;;;;;;8.13;5.60;;;5.40;83.10;;;;;;5063604;28;20658;-60
2021/01/27 05:51:18;;;;;;;6.23;4.93;;;5.40;83.20;;;;;;5052268;28;20795;-60
2021/01/27 05:53:45;;;;;;;5.40;4.90;;;5.40;83.40;;;;;;5072535;28;20708;-59
2021/01/27 05:56:16;;;;;;;5.87;4.87;;;5.40;83.30;;;;;;5072557;28;20621;-60
2021/01/27 05:58:47;;;;;;;7.47;5.70;;;5.50;83.70;;;;;;5072490;28;20625;-60
2021/01/27 06:01:16;;;;;;;8.77;5.67;;;5.50;83.80;;;;;;5072164;28;20656;-60
2021/01/27 06:03:57;;;;;;;4.20;3.80;;;5.50;84.10;;;;;;5071843;28;21244;-60
2021/01/27 06:06:25;;;;;;;5.40;4.70;;;5.50;84.20;;;;;;5071961;28;20610;-59
2021/01/27 06:08:53;;;;;;;7.93;6.37;;;5.50;85.30;;;;;;5070875;28;20696;-60
2021/01/27 06:11:20;;;;;;;8.10;5.00;;;5.50;85.60;;;;;;5072096;28;20703;-60
2021/01/27 06:13:48;;;;;;;5.83;4.70;;;5.50;85.60;;;;;;5072051;28;20634;-60
2021/01/27 06:16:22;;;;;;;5.03;4.53;;;5.50;86.00;;;;;;5071570;28;20624;-61
2021/01/27 06:18:49;;;;;;;6.73;5.73;;;5.50;86.30;;;;;;5071636;28;20622;-60
2021/01/27 06:21:40;;;;;;;6.60;5.90;;;5.40;86.60;;;;;;5054034;28;20654;-61
2021/01/27 06:24:24;;;;;;;7.90;6.30;;;5.40;86.50;;;;;;5071660;28;20629;-60
2021/01/27 06:27:30;;;;;;;7.00;5.30;;;5.40;86.60;;;;;;5071759;28;20692;-60
2021/01/27 06:30:18;;;;;;;8.37;7.10;;;5.30;86.90;;;;;;5072072;28;20664;-60
2021/01/27 06:33:10;;;;;;;7.27;4.20;;;5.30;87.00;;;;;;5071158;28;20678;-60
2021/01/27 06:35:42;;;;;;;7.40;6.20;;;5.30;87.20;;;;;;5071618;28;20621;-60
2021/01/27 06:38:18;;;;;;;8.00;5.70;;;5.30;87.60;;;;;;5071675;28;20989;-60
2021/01/27 06:41:00;;;;;;;11.40;6.77;;;5.30;87.60;;;;;;5069577;28;20727;-60
2021/01/27 06:43:47;;;;;;;6.80;5.90;;;5.40;87.40;;;;;;5070825;28;21170;-60
2021/01/27 06:46:32;;;;;;;5.67;5.13;;;5.40;87.40;;;;;;5071300;28;21026;-60
2021/01/27 06:49:11;;;;;;;6.70;5.70;;;5.40;87.60;;;;;;5053810;28;20742;-60
2021/01/27 06:51:59;;;;;;;7.63;5.63;;;5.40;87.50;;;;;;5071477;28;20657;-60
2021/01/27 06:54:36;;;;;;;8.37;5.23;;;5.40;87.40;;;;;;5070841;28;20622;-60
2021/01/27 06:57:11;;;;;;;7.97;5.80;;;5.40;87.60;;;;;;5071234;28;20700;-60
2021/01/27 07:00:03;;;;;;;7.20;6.30;;;5.30;87.80;;;;;;5070948;28;20617;-61
2021/01/27 07:03:21;;;;;;;8.37;6.40;;;5.30;88.20;;;;;;5071491;28;21246;-61
2021/01/27 07:06:06;;;;;;;7.00;6.10;;;5.30;88.10;;;;;;5071094;28;20721;-61
2021/01/27 07:08:47;;;;;;;6.83;6.10;;;5.30;87.90;;;;;;5070312;28;20646;-60
2021/01/27 07:11:17;;;;;;;7.60;5.70;;;5.30;87.90;;;;;;5030770;28;20655;-61
2021/01/27 07:14:04;;;;;;;7.03;6.20;;;5.30;87.90;;;;;;5031291;28;20657;-59
2021/01/27 07:16:47;;;;;;;7.47;6.77;;;5.30;88.10;;;;;;5019253;28;21203;-59
2021/01/27 07:19:43;;;;;;;10.40;6.47;;;5.30;88.60;;;;;;5031369;28;20636;-59
2021/01/27 07:22:13;;;;;;;8.40;6.77;;;5.30;89.00;;;;;;5031161;28;20631;-61
2021/01/27 07:24:44;;;;;;;9.00;7.57;;;5.20;89.40;;;;;;5041810;28;20623;-61
2021/01/27 07:27:13;;;;;;;11.90;7.07;;;5.20;90.20;;;;;;5050179;28;21173;-61
2021/01/27 07:29:45;;;;;;;8.53;7.60;;;5.20;90.50;;;;;;5050585;28;21215;-61
2021/01/27 07:32:17;;;;;;;7.60;6.53;;;5.30;90.70;;;;;;5050823;28;20633;-62
2021/01/27 07:34:47;;;;;;;7.67;6.77;;;5.30;90.70;;;;;;5050589;28;20992;-61
2021/01/27 07:37:18;;;;;;;8.40;6.60;;;5.30;90.70;;;;;;5050641;28;20996;-59
2021/01/27 07:39:52;;;;;;;8.33;5.00;;;5.30;90.80;;;;;;5058341;28;20629;-61
2021/01/27 07:42:20;;;;;;;9.30;7.33;;;5.30;90.90;;;;;;5070512;28;21044;-59
2021/01/27 07:44:50;;;;;;;10.63;7.17;;;5.30;91.40;;;;;;5069840;28;21137;-61
2021/01/27 07:47:21;;;;;;;9.10;6.27;;;5.30;91.50;;;;;;5070381;28;21349;-60
2021/01/27 07:49:51;;;;;;;6.80;6.10;;;5.20;91.90;;;;;;5058490;28;20689;-60
2021/01/27 07:52:23;;;;;;;7.63;6.83;;;5.20;92.20;;;;;;5049519;28;20630;-62
2021/01/27 07:54:51;;;;;;;11.17;7.80;;;5.20;92.50;;;;;;5049177;28;20653;-59
2021/01/27 07:57:31;;;;;;;13.70;9.90;;;5.20;92.80;;;;;;5050288;28;20626;-60
2021/01/27 08:00:02;;;;;;;8.57;7.57;;;5.20;93.00;;;;;;5032265;28;20649;-62
2021/01/27 08:02:29;;;;;;;9.23;8.23;;;5.10;93.00;;;;;;5050243;28;20962;-62
2021/01/27 08:05:00;;;;;;;8.67;7.43;;;5.10;93.40;;;;;;5050156;28;20626;-62
2021/01/27 08:07:30;;;;;;;9.17;5.20;;;5.00;94.00;;;;;;5050477;28;20682;-63
2021/01/27 08:09:57;;;;;;;8.97;8.07;;;5.00;94.20;;;;;;5031981;28;20670;-63
2021/01/27 08:12:28;;;;;;;17.23;7.67;;;5.00;94.40;;;;;;5064591;28;20652;-62
2021/01/27 08:15:10;;;;;;;13.30;8.83;;;5.00;94.50;;;;;;5069727;28;20976;-63
2021/01/27 08:17:48;;;;;;;7.83;7.03;;;5.00;94.70;;;;;;5052690;28;21019;-61
2021/01/27 08:20:20;;;;;;;6.73;5.60;;;5.00;94.80;;;;;;5070378;28;20707;-61
2021/01/27 08:22:49;;;;;;;9.87;7.70;;;5.00;94.60;;;;;;5051935;28;21266;-62
2021/01/27 08:25:49;;;;;;;10.40;7.13;;;5.00;94.60;;;;;;5070615;28;20686;-62
2021/01/27 08:28:16;;;;;;;14.30;6.20;;;5.00;94.60;;;;;;5068573;28;20970;-61
2021/01/27 08:30:43;;;;;;;8.17;7.37;;;5.10;94.60;;;;;;5070072;28;20664;-61
2021/01/27 08:33:32;;;;;;;8.87;6.60;;;5.00;94.40;;;;;;5051457;28;20682;-62
2021/01/27 08:36:03;;;;;;;8.37;6.40;;;5.00;94.70;;;;;;5070029;28;20621;-62
2021/01/27 08:38:35;;;;;;;6.27;5.40;;;5.10;94.70;;;;;;5070895;28;20679;-61
2021/01/27 08:41:02;;;;;;;25.33;8.40;;;5.10;94.50;;;;;;5072479;28;20772;-60
2021/01/27 08:43:33;;;;;;;7.60;5.70;;;5.10;94.50;;;;;;5073094;28;20629;-60
2021/01/27 08:46:27;;;;;;;6.60;5.90;;;5.00;94.50;;;;;;5073741;28;20632;-60
2021/01/27 08:48:54;;;;;;;7.43;6.40;;;5.00;94.60;;;;;;5072763;28;20649;-59
2021/01/27 08:51:48;;;;;;;6.47;4.90;;;5.00;94.60;;;;;;5073276;28;20698;-59
2021/01/27 08:54:45;;;;;;;5.77;5.17;;;5.00;94.70;;;;;;5073619;28;20678;-62
2021/01/27 08:57:36;;;;;;;5.87;3.63;;;5.10;94.70;;;;;;5073615;28;20629;-61
2021/01/27 09:00:09;;;;;;;5.83;3.77;;;5.00;94.80;;;;;;5073109;28;21181;-60
2021/01/27 09:02:44;;;;;;;8.53;4.70;;;5.00;95.00;;;;;;5073631;28;20633;-61
2021/01/27 09:05:37;;;;;;;6.40;4.13;;;5.00;94.90;;;;;;5072813;28;20629;-61
2021/01/27 09:08:26;;;;;;;3.57;3.10;;;5.00;95.10;;;;;;5064978;28;21199;-60
2021/01/27 09:10:56;;;;;;;6.93;3.70;;;5.00;94.90;;;;;;5065433;28;21006;-60
2021/01/27 09:13:23;;;;;;;3.50;2.57;;;5.00;94.80;;;;;;5052004;28;20626;-58
2021/01/27 09:15:51;;;;;;;4.70;3.57;;;4.90;94.70;;;;;;5053471;28;20703;-59
2021/01/27 09:18:18;;;;;;;2.93;1.73;;;4.80;95.10;;;;;;5053637;28;21196;-60
2021/01/27 09:20:45;;;;;;;3.43;3.13;;;4.70;95.30;;;;;;5053213;28;20698;-61
2021/01/27 09:23:12;;;;;;;4.87;3.80;;;4.60;95.50;;;;;;5053030;28;20691;-61
2021/01/27 09:25:44;;;;;;;4.67;3.40;;;4.60;96.00;;;;;;5053075;28;20751;-60
2021/01/27 09:28:11;;;;;;;7.00;3.53;;;4.70;96.00;;;;;;5053218;28;21251;-62
2021/01/27 09:30:38;;;;;;;4.47;4.07;;;4.70;95.80;;;;;;5052918;28;20662;-61
2021/01/27 09:33:10;;;;;;;3.03;2.80;;;4.60;95.80;;;;;;5052354;28;20691;-60
2021/01/27 09:35:37;;;;;;;3.07;2.77;;;4.60;95.80;;;;;;5053172;28;20626;-59
2021/01/27 09:38:06;;;;;;;10.53;4.57;;;4.60;95.80;;;;;;5052473;28;20622;-60
2021/01/27 09:40:35;;;;;;;5.85;3.90;;;4.60;95.80;;;;;;5055943;28;20710;-61
2021/01/27 09:43:04;;;;;;;7.60;3.80;;;4.50;95.80;;;;;;5072587;28;20196;-60
2021/01/27 09:45:33;;;;;;;6.70;5.57;;;4.50;96.30;;;;;;5072540;28;20671;-60
2021/01/27 09:48:00;;;;;;;6.37;5.77;;;4.40;96.20;;;;;;5070769;28;20640;-61
2021/01/27 09:50:27;;;;;;;4.00;3.60;;;4.40;96.30;;;;;;5060291;28;21253;-61
2021/01/27 09:52:55;;;;;;;6.07;4.90;;;4.50;96.50;;;;;;5034236;28;20638;-61
2021/01/27 09:55:22;;;;;;;4.77;4.10;;;4.50;96.40;;;;;;5051905;28;20344;-61
2021/01/27 09:57:50;;;;;;;11.07;5.43;;;4.50;96.50;;;;;;5034357;28;20628;-61
2021/01/27 10:00:33;;;;;;;5.13;4.53;;;4.50;96.60;;;;;;5052047;28;20672;-61
2021/01/27 10:03:27;;;;;;;5.47;4.93;;;4.50;96.60;;;;;;5050161;28;20688;-63
2021/01/27 10:05:53;;;;;;;4.30;3.50;;;4.40;96.40;;;;;;5050146;28;20629;-61
2021/01/27 10:08:24;;;;;;;4.97;4.47;;;4.40;96.60;;;;;;5052292;28;20633;-62
2021/01/27 10:11:01;;;;;;;4.30;3.57;;;4.40;96.50;;;;;;5069026;28;20665;-60
2021/01/27 10:13:31;;;;;;;5.53;4.80;;;4.40;96.60;;;;;;5071962;28;20664;-60
2021/01/27 10:16:07;;;;;;;7.47;4.83;;;4.40;96.80;;;;;;5070528;28;20621;-60
2021/01/27 10:18:34;;;;;;;2.97;2.78;;;4.40;96.70;;;;;;5071674;28;20766;-61
2021/01/27 10:21:01;;;;;;;3.57;3.27;;;4.40;96.70;;;;;;5071628;28;20215;-59
2021/01/27 10:23:39;;;;;;;3.43;3.13;;;4.40;96.50;;;;;;5072076;28;20694;-61
2021/01/27 10:26:22;;;;;;;3.23;2.50;;;4.40;96.70;;;;;;5071278;28;20992;-60
2021/01/27 10:29:26;;;;;;;4.07;3.40;;;4.40;96.50;;;;;;5053595;28;20676;-60
2021/01/27 10:31:55;;;;;;;6.20;3.80;;;4.30;96.30;;;;;;5050132;28;20629;-61
2021/01/27 10:34:41;;;;;;;3.70;3.37;;;4.40;96.60;;;;;;5071794;28;20625;-60
2021/01/27 10:37:32;;;;;;;3.87;3.57;;;4.50;96.60;;;;;;5071095;28;21172;-60
2021/01/27 10:42:27;;;;;;;5.17;3.70;;;4.50;96.30;;;;;;5089729;28;20644;-53
2021/01/27 10:45:16;;;;;;;5.37;3.67;;;4.50;96.00;;;;;;5090146;28;20635;-53
2021/01/27 10:47:44;;;;;;;5.70;4.70;;;4.50;95.90;;;;;;5072552;28;20624;-52
2021/01/27 10:50:11;;;;;;;3.67;3.30;;;4.50;95.80;;;;;;5090999;28;20652;-51
2021/01/27 10:52:38;;;;;;;5.67;3.30;;;4.40;96.00;;;;;;5090947;28;20632;-54
2021/01/27 10:55:07;;;;;;;3.95;3.55;;;4.40;96.00;;;;;;5090523;28;21090;-55
2021/01/27 10:57:33;;;;;;;2.53;2.33;;;4.50;96.00;;;;;;5090910;28;20643;-54
2021/01/27 11:00:00;;;;;;;2.47;1.80;;;4.40;95.90;;;;;;5090334;28;20612;-55
2021/01/27 11:02:29;;;;;;;3.10;2.57;;;4.40;95.60;;;;;;5090693;28;20628;-54
2021/01/27 11:04:57;;;;;;;4.33;3.27;;;4.40;95.90;;;;;;5090433;28;20631;-55
2021/01/27 11:07:24;;;;;;;4.00;3.70;;;4.40;96.20;;;;;;5090576;28;20624;-55
2021/01/27 11:09:51;;;;;;;6.43;4.67;;;4.30;96.00;;;;;;5075001;28;20727;-54
2021/01/27 11:12:18;;;;;;;3.83;3.50;;;4.40;96.20;;;;;;5069402;28;20701;-54
2021/01/27 11:14:44;;;;;;;6.50;4.90;;;4.40;96.20;;;;;;5070399;28;20660;-53
2021/01/27 11:17:11;;;;;;;4.23;3.80;;;4.40;96.00;;;;;;5070154;28;20710;-55
2021/01/27 11:19:38;;;;;;;3.30;3.00;;;4.50;96.20;;;;;;5070464;28;21184;-54
2021/01/27 11:22:06;;;;;;;6.00;5.20;;;4.50;96.10;;;;;;5070320;28;20653;-55
2021/01/27 11:24:33;;;;;;;5.73;3.90;;;4.40;96.10;;;;;;5069928;28;20670;-55
2021/01/27 11:27:00;;;;;;;6.17;4.17;;;4.50;96.40;;;;;;5070158;28;20740;-55
2021/01/27 11:29:27;;;;;;;4.50;2.60;;;4.40;96.10;;;;;;5069509;28;20657;-56
2021/01/27 11:31:53;;;;;;;4.97;4.40;;;4.30;96.30;;;;;;5069643;28;20653;-54
2021/01/27 11:34:20;;;;;;;6.50;6.00;;;4.30;96.70;;;;;;5070386;28;21204;-53
2021/01/27 11:36:47;;;;;;;4.67;4.33;;;4.30;97.00;;;;;;5070246;28;20624;-55
2021/01/27 11:39:15;;;;;;;5.77;5.30;;;4.40;97.00;;;;;;5068692;28;20703;-55
2021/01/27 11:41:41;;;;;;;9.67;5.30;;;4.40;97.10;;;;;;5051700;28;20661;-54
2021/01/27 11:44:12;;;;;;;6.70;6.20;;;4.50;96.80;;;;;;5070147;28;20695;-55
2021/01/27 11:46:41;;;;;;;5.13;4.63;;;4.60;97.10;;;;;;5052014;28;21318;-54
2021/01/27 11:49:08;;;;;;;4.20;3.80;;;4.60;96.50;;;;;;5069698;28;21285;-54
2021/01/27 11:51:35;;;;;;;5.70;5.27;;;4.50;96.70;;;;;;5059294;28;20661;-54
2021/01/27 11:54:05;;;;;;;5.13;4.73;;;4.40;96.70;;;;;;5049418;28;20692;-54
2021/01/27 11:56:32;;;;;;;6.57;4.63;;;4.40;96.70;;;;;;5049708;28;20626;-55
2021/01/27 11:58:59;;;;;;;3.90;3.40;;;4.30;96.50;;;;;;5048870;28;20626;-54
2021/01/27 12:01:27;;;;;;;4.80;4.40;;;4.30;96.90;;;;;;5049824;28;21076;-55
2021/01/27 12:03:54;;;;;;;4.53;3.93;;;4.30;96.80;;;;;;5049187;28;20629;-54
2021/01/27 12:06:22;;;;;;;6.37;5.83;;;4.30;96.90;;;;;;5049381;28;20638;-54
2021/01/27 12:08:49;;;;;;;6.33;5.80;;;4.40;96.90;;;;;;5049641;28;20713;-52
2021/01/27 12:11:16;;;;;;;6.50;5.90;;;4.40;96.60;;;;;;5048590;28;20724;-53
2021/01/27 12:13:44;;;;;;;7.57;5.80;;;4.30;96.60;;;;;;5051147;28;20683;-52
2021/01/27 12:16:11;;;;;;;5.37;4.87;;;4.40;96.90;;;;;;5053364;28;21007;-54
2021/01/27 12:18:38;;;;;;;7.43;6.80;;;4.40;96.90;;;;;;5053282;28;20630;-53
2021/01/27 12:21:04;;;;;;;7.67;6.90;;;4.30;96.60;;;;;;5069263;28;21063;-53
2021/01/27 12:23:31;;;;;;;9.20;7.30;;;4.30;96.70;;;;;;5072853;28;20999;-53
2021/01/27 12:25:58;;;;;;;7.40;6.70;;;4.30;96.70;;;;;;5073108;28;21176;-54
2021/01/27 12:28:25;;;;;;;8.03;7.37;;;4.30;96.70;;;;;;5072650;28;20653;-56
2021/01/27 12:30:53;;;;;;;9.47;7.77;;;4.30;97.00;;;;;;5072902;28;20665;-54
2021/01/27 12:33:20;;;;;;;7.90;7.20;;;4.40;97.20;;;;;;5071839;28;21184;-53
2021/01/27 12:35:47;;;;;;;6.30;5.73;;;4.40;96.90;;;;;;5072861;28;20668;-56
2021/01/27 12:38:16;;;;;;;7.00;6.33;;;4.50;97.10;;;;;;5071384;28;20637;-52
2021/01/27 12:40:44;;;;;;;8.80;6.70;;;4.50;96.90;;;;;;5072079;28;21243;-54
2021/01/27 12:43:12;;;;;;;7.60;6.90;;;4.50;96.70;;;;;;5072304;28;20613;-53
2021/01/27 12:45:39;;;;;;;5.93;5.43;;;4.50;96.70;;;;;;5072362;28;21183;-54
2021/01/27 12:48:07;;;;;;;4.57;4.17;;;4.50;97.00;;;;;;5071499;28;20621;-53
2021/01/27 12:50:34;;;;;;;6.60;4.77;;;4.50;96.70;;;;;;5072602;28;20668;-55
2021/01/27 12:53:00;;;;;;;7.47;6.70;;;4.50;96.70;;;;;;5072767;28;20616;-55
2021/01/27 12:55:27;;;;;;;8.43;6.83;;;4.60;96.70;;;;;;5072258;28;20640;-55
2021/01/27 12:57:54;;;;;;;5.00;4.40;;;4.50;96.60;;;;;;5072569;28;20704;-54
2021/01/27 13:00:30;;;;;;;5.37;4.87;;;4.40;96.60;;;;;;5072476;28;20652;-54
2021/01/27 13:02:57;;;;;;;5.10;4.70;;;4.40;96.80;;;;;;5054913;28;20613;-55
2021/01/27 13:05:27;;;;;;;4.20;3.90;;;4.50;97.20;;;;;;5072254;28;20621;-51
2021/01/27 13:07:56;;;;;;;5.70;5.23;;;4.50;97.30;;;;;;5054166;28;20628;-53
2021/01/27 13:10:23;;;;;;;4.60;4.20;;;4.60;97.20;;;;;;5071815;28;20668;-54
2021/01/27 13:12:51;;;;;;;4.40;4.10;;;4.60;96.70;;;;;;5071149;28;20694;-52
2021/01/27 13:15:19;;;;;;;6.90;6.23;;;4.60;96.90;;;;;;5071941;28;20682;-53
2021/01/27 13:17:46;;;;;;;5.63;5.10;;;4.60;96.90;;;;;;5071999;28;21141;-56
2021/01/27 13:20:13;;;;;;;7.07;6.47;;;4.60;96.80;;;;;;5071879;28;20621;-54